createdAt,value
2023-03-05T00:00:29.483Z,1016.39
2023-03-05T00:01:29.452Z,1016.37
2023-03-05T00:02:29.498Z,1016.30
2023-03-05T00:03:29.439Z,1016.38
2023-03-05T00:04:29.403Z,1016.32
2023-03-05T00:05:29.481Z,1016.30
2023-03-05T00:06:29.410Z,1016.34
2023-03-05T00:07:29.334Z,1016.36
2023-03-05T00:08:29.382Z,1016.30
2023-03-05T00:09:29.335Z,1016.29
2023-03-05T00:10:29.323Z,1016.34
2023-03-05T00:11:29.384Z,1016.31
2023-03-05T00:12:29.320Z,1016.31
2023-03-05T00:13:29.281Z,1016.31
2023-03-05T00:14:29.265Z,1016.31
2023-03-05T00:15:29.328Z,1016.30
2023-03-05T00:16:29.227Z,1016.31
2023-03-05T00:17:29.263Z,1016.31
2023-03-05T00:18:29.211Z,1016.31
2023-03-05T00:19:29.203Z,1016.24
2023-03-05T00:20:29.185Z,1016.23
2023-03-05T00:21:29.200Z,1016.22
2023-03-05T00:22:29.133Z,1016.21
2023-03-05T00:23:29.284Z,1016.15
2023-03-05T00:24:29.104Z,1016.19
2023-03-05T00:25:29.131Z,1016.16
2023-03-05T00:26:29.111Z,1016.12
2023-03-05T00:27:29.093Z,1016.10
2023-03-05T00:28:29.081Z,1016.10
2023-03-05T00:29:31.382Z,1016.09
2023-03-05T00:30:29.027Z,1016.06
2023-03-05T00:31:29.124Z,1016.06
2023-03-05T00:32:29.071Z,1016.11
2023-03-05T00:33:29.017Z,1016.06
2023-03-05T00:34:29.004Z,1016.10
2023-03-05T00:35:29.054Z,1016.15
2023-03-05T00:36:28.981Z,1016.11
2023-03-05T00:37:28.994Z,1016.04
2023-03-05T00:38:28.929Z,1016.05
2023-03-05T00:39:28.973Z,1016.07
2023-03-05T00:40:28.950Z,1016.02
2023-03-05T00:41:29.038Z,1016.08
2023-03-05T00:42:28.916Z,1016.01
2023-03-05T00:43:28.927Z,1016.02
2023-03-05T00:44:28.853Z,1016.00
2023-03-05T00:45:28.860Z,1015.97
2023-03-05T00:46:28.987Z,1015.97
2023-03-05T00:47:28.884Z,1015.95
2023-03-05T00:48:28.826Z,1015.94
2023-03-05T00:49:28.838Z,1016.03
2023-03-05T00:50:29.512Z,1015.99
2023-03-05T00:51:28.813Z,1015.95
2023-03-05T00:52:28.790Z,1015.93
2023-03-05T00:53:28.874Z,1015.93
2023-03-05T00:54:28.767Z,1015.91
2023-03-05T00:55:28.742Z,1015.91
2023-03-05T00:56:28.712Z,1015.89
2023-03-05T00:57:28.774Z,1015.91
2023-03-05T00:58:28.675Z,1015.82
2023-03-05T00:59:28.724Z,1015.81
2023-03-05T01:00:28.662Z,1015.83
2023-03-05T01:01:28.718Z,1015.88
2023-03-05T01:02:28.606Z,1015.78
2023-03-05T01:03:28.654Z,1015.77
2023-03-05T01:04:28.578Z,1015.76
2023-03-05T01:05:28.718Z,1015.71
2023-03-05T01:06:28.578Z,1015.70
2023-03-05T01:07:28.564Z,1015.67
2023-03-05T01:08:28.552Z,1015.66
2023-03-05T01:09:28.561Z,1015.61
2023-03-05T01:10:28.509Z,1015.63
2023-03-05T01:11:28.639Z,1015.57
2023-03-05T01:12:28.470Z,1015.59
2023-03-05T01:13:28.480Z,1015.56
2023-03-05T01:14:28.476Z,1015.56
2023-03-05T01:15:28.475Z,1015.55
2023-03-05T01:16:28.458Z,1015.58
2023-03-05T01:17:28.555Z,1015.53
2023-03-05T01:18:28.415Z,1015.53
2023-03-05T01:19:28.404Z,1015.55
2023-03-05T01:20:28.383Z,1015.52
2023-03-05T01:21:28.404Z,1015.56
2023-03-05T01:22:28.339Z,1015.57
2023-03-05T01:23:28.492Z,1015.56
2023-03-05T01:24:28.315Z,1015.54
2023-03-05T01:25:28.318Z,1015.54
2023-03-05T01:26:28.302Z,1015.48
2023-03-05T01:27:28.292Z,1015.47
2023-03-05T01:28:28.280Z,1015.49
2023-03-05T01:29:28.395Z,1015.50
2023-03-05T01:30:28.221Z,1015.44
2023-03-05T01:31:28.261Z,1015.43
2023-03-05T01:32:28.277Z,1015.43
2023-03-05T01:33:28.220Z,1015.40
2023-03-05T01:34:28.199Z,1015.39
2023-03-05T01:35:28.241Z,1015.38
2023-03-05T01:36:28.180Z,1015.37
2023-03-05T01:37:28.132Z,1015.39
2023-03-05T01:38:28.174Z,1015.40
2023-03-05T01:39:28.105Z,1015.41
2023-03-05T01:40:28.147Z,1015.41
2023-03-05T01:41:28.248Z,1015.35
2023-03-05T01:42:28.099Z,1015.39
2023-03-05T01:43:28.082Z,1015.32
2023-03-05T01:44:28.064Z,1015.30
2023-03-05T01:45:28.063Z,1015.26
2023-03-05T01:46:28.076Z,1015.22
2023-03-05T01:47:28.046Z,1015.16
2023-03-05T01:48:28.022Z,1015.19
2023-03-05T01:49:28.012Z,1015.18
2023-03-05T01:50:28.014Z,1015.14
2023-03-05T01:51:27.958Z,1015.12
2023-03-05T01:52:28.005Z,1015.13
2023-03-05T01:53:27.976Z,1015.10
2023-03-05T01:54:27.940Z,1015.11
2023-03-05T01:55:27.934Z,1015.13
2023-03-05T01:56:27.916Z,1015.13
2023-03-05T01:57:27.871Z,1015.06
2023-03-05T01:58:27.903Z,1015.12
2023-03-05T01:59:28.003Z,1015.06
2023-03-05T02:00:28.716Z,1015.07
2023-03-05T02:01:27.882Z,1015.10
2023-03-05T02:02:27.865Z,1015.06
2023-03-05T02:03:27.849Z,1015.05
2023-03-05T02:04:27.850Z,1015.02
2023-03-05T02:05:27.934Z,1014.98
2023-03-05T02:06:27.791Z,1014.99
2023-03-05T02:07:27.776Z,1014.97
2023-03-05T02:08:27.762Z,1015.03
2023-03-05T02:09:27.714Z,1015.01
2023-03-05T02:10:27.776Z,1014.95
2023-03-05T02:11:27.733Z,1014.94
2023-03-05T02:12:27.746Z,1014.93
2023-03-05T02:13:28.436Z,1014.95
2023-03-05T02:14:27.692Z,1015.00
2023-03-05T02:15:27.670Z,1014.97
2023-03-05T02:16:27.682Z,1015.00
2023-03-05T02:17:27.721Z,1014.94
2023-03-05T02:18:27.652Z,1014.87
2023-03-05T02:19:27.620Z,1014.92
2023-03-05T02:20:27.598Z,1014.84
2023-03-05T02:21:27.567Z,1014.82
2023-03-05T02:22:27.612Z,1014.80
2023-03-05T02:23:27.657Z,1014.81
2023-03-05T02:24:28.383Z,1014.77
2023-03-05T02:25:27.556Z,1014.72
2023-03-05T02:26:27.540Z,1014.70
2023-03-05T02:27:27.528Z,1014.72
2023-03-05T02:28:27.488Z,1014.70
2023-03-05T02:29:27.587Z,1014.74
2023-03-05T02:30:27.518Z,1014.73
2023-03-05T02:31:27.486Z,1014.70
2023-03-05T02:32:27.537Z,1014.69
2023-03-05T02:33:27.454Z,1014.66
2023-03-05T02:34:27.429Z,1014.64
2023-03-05T02:35:27.464Z,1014.68
2023-03-05T02:36:27.413Z,1014.66
2023-03-05T02:37:27.359Z,1014.67
2023-03-05T02:38:27.407Z,1014.64
2023-03-05T02:39:27.331Z,1014.58
2023-03-05T02:40:27.379Z,1014.56
2023-03-05T02:41:27.358Z,1014.58
2023-03-05T02:42:27.333Z,1014.55
2023-03-05T02:43:27.310Z,1014.46
2023-03-05T02:44:27.316Z,1014.47
2023-03-05T02:45:27.292Z,1014.47
2023-03-05T02:46:27.288Z,1014.48
2023-03-05T02:47:27.346Z,1014.48
2023-03-05T02:48:27.270Z,1014.48
2023-03-05T02:49:27.230Z,1014.47
2023-03-05T02:50:27.223Z,1014.45
2023-03-05T02:51:27.180Z,1014.46
2023-03-05T02:52:27.211Z,1014.48
2023-03-05T02:53:27.293Z,1014.46
2023-03-05T02:54:27.166Z,1014.47
2023-03-05T02:55:27.144Z,1014.43
2023-03-05T02:56:27.142Z,1014.43
2023-03-05T02:57:27.106Z,1014.43
2023-03-05T02:58:27.142Z,1014.42
2023-03-05T02:59:27.086Z,1014.43
2023-03-05T03:00:27.115Z,1014.38
2023-03-05T03:01:27.130Z,1014.39
2023-03-05T03:02:27.054Z,1014.46
2023-03-05T03:03:27.151Z,1014.39
2023-03-05T03:04:27.030Z,1014.40
2023-03-05T03:05:27.030Z,1014.43
2023-03-05T03:06:27.030Z,1014.36
2023-03-05T03:07:26.994Z,1014.37
2023-03-05T03:08:27.018Z,1014.40
2023-03-05T03:09:26.946Z,1014.41
2023-03-05T03:10:26.979Z,1014.40
2023-03-05T03:11:26.954Z,1014.40
2023-03-05T03:12:26.956Z,1014.37
2023-03-05T03:13:26.916Z,1014.30
2023-03-05T03:14:26.900Z,1014.34
2023-03-05T03:15:26.892Z,1014.33
2023-03-05T03:16:26.914Z,1014.31
2023-03-05T03:17:26.955Z,1014.30
2023-03-05T03:18:26.878Z,1014.30
2023-03-05T03:19:26.820Z,1014.28
2023-03-05T03:20:26.852Z,1014.29
2023-03-05T03:21:26.824Z,1014.27
2023-03-05T03:22:26.796Z,1014.28
2023-03-05T03:23:26.798Z,1014.26
2023-03-05T03:24:26.849Z,1014.24
2023-03-05T03:25:26.778Z,1014.23
2023-03-05T03:26:26.773Z,1014.27
2023-03-05T03:27:26.742Z,1014.21
2023-03-05T03:28:26.716Z,1014.19
2023-03-05T03:29:26.790Z,1014.19
2023-03-05T03:30:26.727Z,1014.15
2023-03-05T03:31:26.664Z,1014.14
2023-03-05T03:32:26.744Z,1014.08
2023-03-05T03:33:26.655Z,1014.12
2023-03-05T03:34:26.649Z,1014.11
2023-03-05T03:35:26.788Z,1014.08
2023-03-05T03:36:26.608Z,1014.06
2023-03-05T03:37:26.603Z,1014.05
2023-03-05T03:38:26.609Z,1014.03
2023-03-05T03:39:26.557Z,1014.01
2023-03-05T03:40:26.616Z,1013.91
2023-03-05T03:41:26.657Z,1014.00
2023-03-05T03:42:26.538Z,1013.94
2023-03-05T03:43:26.542Z,1013.95
2023-03-05T03:44:26.521Z,1013.92
2023-03-05T03:45:26.481Z,1013.89
2023-03-05T03:46:26.546Z,1013.90
2023-03-05T03:47:26.470Z,1013.88
2023-03-05T03:48:26.487Z,1013.90
2023-03-05T03:49:26.455Z,1013.91
2023-03-05T03:50:26.445Z,1013.87
2023-03-05T03:51:26.426Z,1013.85
2023-03-05T03:52:26.409Z,1013.85
2023-03-05T03:53:26.421Z,1013.85
2023-03-05T03:54:26.416Z,1013.82
2023-03-05T03:55:26.359Z,1013.85
2023-03-05T03:56:26.366Z,1013.84
2023-03-05T03:57:26.334Z,1013.72
2023-03-05T03:58:26.371Z,1013.75
2023-03-05T03:59:26.334Z,1013.78
2023-03-05T04:00:26.351Z,1013.75
2023-03-05T04:01:26.296Z,1013.74
2023-03-05T04:02:26.349Z,1013.72
2023-03-05T04:03:26.282Z,1013.72
2023-03-05T04:04:26.344Z,1013.74
2023-03-05T04:05:26.259Z,1013.69
2023-03-05T04:06:26.252Z,1013.68
2023-03-05T04:07:26.182Z,1013.69
2023-03-05T04:08:26.233Z,1013.70
2023-03-05T04:09:26.192Z,1013.70
2023-03-05T04:10:26.209Z,1013.70
2023-03-05T04:11:26.177Z,1013.68
2023-03-05T04:12:26.208Z,1013.69
2023-03-05T04:13:26.126Z,1013.71
2023-03-05T04:14:26.137Z,1013.69
2023-03-05T04:15:26.120Z,1013.70
2023-03-05T04:16:26.143Z,1013.68
2023-03-05T04:17:26.100Z,1013.69
2023-03-05T04:18:26.120Z,1013.68
2023-03-05T04:19:26.030Z,1013.65
2023-03-05T04:20:26.085Z,1013.62
2023-03-05T04:21:26.045Z,1013.57
2023-03-05T04:22:26.032Z,1013.57
2023-03-05T04:23:26.027Z,1013.61
2023-03-05T04:24:26.019Z,1013.60
2023-03-05T04:25:25.952Z,1013.54
2023-03-05T04:26:26.021Z,1013.59
2023-03-05T04:27:25.965Z,1013.53
2023-03-05T04:28:25.956Z,1013.51
2023-03-05T04:29:26.019Z,1013.53
2023-03-05T04:30:25.946Z,1013.50
2023-03-05T04:31:25.921Z,1013.48
2023-03-05T04:32:25.947Z,1013.51
2023-03-05T04:33:25.864Z,1013.52
2023-03-05T04:34:25.853Z,1013.47
2023-03-05T04:35:25.981Z,1013.44
2023-03-05T04:36:25.838Z,1013.43
2023-03-05T04:37:25.812Z,1013.42
2023-03-05T04:38:25.835Z,1013.42
2023-03-05T04:39:25.760Z,1013.44
2023-03-05T04:40:25.839Z,1013.42
2023-03-05T04:41:25.823Z,1013.41
2023-03-05T04:42:25.770Z,1013.42
2023-03-05T04:43:25.733Z,1013.37
2023-03-05T04:44:25.732Z,1013.39
2023-03-05T04:45:25.694Z,1013.39
2023-03-05T04:46:25.759Z,1013.36
2023-03-05T04:47:25.711Z,1013.33
2023-03-05T04:48:25.706Z,1013.36
2023-03-05T04:49:25.675Z,1013.35
2023-03-05T04:50:25.648Z,1013.35
2023-03-05T04:51:25.625Z,1013.37
2023-03-05T04:52:25.627Z,1013.40
2023-03-05T04:53:25.641Z,1013.33
2023-03-05T04:54:25.627Z,1013.38
2023-03-05T04:55:25.559Z,1013.30
2023-03-05T04:56:25.606Z,1013.30
2023-03-05T04:57:25.558Z,1013.29
2023-03-05T04:58:25.548Z,1013.23
2023-03-05T04:59:25.629Z,1013.21
2023-03-05T05:00:25.549Z,1013.25
2023-03-05T05:01:25.581Z,1013.17
2023-03-05T05:02:25.650Z,1013.24
2023-03-05T05:03:25.489Z,1013.20
2023-03-05T05:04:25.457Z,1013.21
2023-03-05T05:05:25.567Z,1013.18
2023-03-05T05:06:25.474Z,1013.24
2023-03-05T05:07:25.403Z,1013.21
2023-03-05T05:08:25.458Z,1013.24
2023-03-05T05:09:25.405Z,1013.15
2023-03-05T05:10:25.397Z,1013.15
2023-03-05T05:11:25.418Z,1013.12
2023-03-05T05:12:25.364Z,1013.10
2023-03-05T05:13:25.325Z,1013.13
2023-03-05T05:14:25.384Z,1013.06
2023-03-05T05:15:25.347Z,1013.08
2023-03-05T05:16:25.336Z,1013.10
2023-03-05T05:17:25.303Z,1013.09
2023-03-05T05:18:25.318Z,1013.07
2023-03-05T05:19:25.311Z,1013.11
2023-03-05T05:20:25.276Z,1013.17
2023-03-05T05:21:25.232Z,1013.11
2023-03-05T05:22:25.236Z,1013.06
2023-03-05T05:23:25.354Z,1013.07
2023-03-05T05:24:25.213Z,1013.05
2023-03-05T05:25:25.193Z,1013.05
2023-03-05T05:26:25.250Z,1013.06
2023-03-05T05:27:25.127Z,1013.10
2023-03-05T05:28:25.198Z,1013.12
2023-03-05T05:29:25.252Z,1013.11
2023-03-05T05:30:25.152Z,1013.09
2023-03-05T05:31:25.173Z,1013.16
2023-03-05T05:32:25.173Z,1013.14
2023-03-05T05:33:25.097Z,1013.11
2023-03-05T05:34:25.078Z,1013.10
2023-03-05T05:35:25.184Z,1013.15
2023-03-05T05:36:25.052Z,1013.09
2023-03-05T05:37:25.018Z,1013.10
2023-03-05T05:38:25.059Z,1013.09
2023-03-05T05:39:25.001Z,1013.10
2023-03-05T05:40:25.041Z,1013.09
2023-03-05T05:41:25.034Z,1013.07
2023-03-05T05:42:24.997Z,1013.11
2023-03-05T05:43:24.972Z,1013.05
2023-03-05T05:44:24.969Z,1013.06
2023-03-05T05:45:25.100Z,1013.13
2023-03-05T05:46:25.031Z,1013.10
2023-03-05T05:47:25.038Z,1013.11
2023-03-05T05:48:24.914Z,1013.11
2023-03-05T05:49:24.916Z,1013.13
2023-03-05T05:50:24.840Z,1013.11
2023-03-05T05:51:24.918Z,1013.14
2023-03-05T05:52:24.839Z,1013.12
2023-03-05T05:53:24.967Z,1013.12
2023-03-05T05:54:24.823Z,1013.10
2023-03-05T05:55:24.821Z,1013.11
2023-03-05T05:56:24.789Z,1013.11
2023-03-05T05:57:24.804Z,1013.06
2023-03-05T05:58:24.743Z,1013.06
2023-03-05T05:59:24.836Z,1013.05
2023-03-05T06:00:24.762Z,1013.08
2023-03-05T06:01:24.757Z,1013.09
2023-03-05T06:02:24.729Z,1013.08
2023-03-05T06:03:24.807Z,1013.08
2023-03-05T06:04:24.685Z,1013.09
2023-03-05T06:05:24.721Z,1013.11
2023-03-05T06:06:24.699Z,1013.10
2023-03-05T06:07:24.668Z,1013.05
2023-03-05T06:08:24.677Z,1013.10
2023-03-05T06:09:24.674Z,1013.08
2023-03-05T06:10:24.592Z,1013.10
2023-03-05T06:11:24.672Z,1013.11
2023-03-05T06:12:24.558Z,1013.13
2023-03-05T06:13:24.583Z,1013.08
2023-03-05T06:14:24.588Z,1013.09
2023-03-05T06:15:24.571Z,1013.16
2023-03-05T06:16:24.607Z,1013.13
2023-03-05T06:17:30.296Z,1013.13
2023-03-05T06:18:25.493Z,1013.16
2023-03-05T06:19:24.493Z,1013.15
2023-03-05T06:20:24.504Z,1013.14
2023-03-05T06:21:24.519Z,1013.11
2023-03-05T06:22:24.452Z,1013.10
2023-03-05T06:23:24.501Z,1013.10
2023-03-05T06:24:24.416Z,1013.07
2023-03-05T06:25:24.426Z,1013.03
2023-03-05T06:26:24.409Z,1013.06
2023-03-05T06:27:24.420Z,1013.02
2023-03-05T06:28:24.387Z,1013.01
2023-03-05T06:29:24.444Z,1013.07
2023-03-05T06:30:24.344Z,1013.08
2023-03-05T06:31:24.383Z,1013.09
2023-03-05T06:32:24.305Z,1013.08
2023-03-05T06:33:24.320Z,1012.97
2023-03-05T06:34:24.315Z,1013.06
2023-03-05T06:35:24.453Z,1013.02
2023-03-05T06:36:24.275Z,1012.97
2023-03-05T06:37:24.278Z,1012.97
2023-03-05T06:38:24.262Z,1012.98
2023-03-05T06:39:24.250Z,1012.91
2023-03-05T06:40:24.237Z,1012.98
2023-03-05T06:41:24.289Z,1013.01
2023-03-05T06:42:24.179Z,1013.00
2023-03-05T06:43:24.224Z,1013.01
2023-03-05T06:44:24.163Z,1012.99
2023-03-05T06:45:24.202Z,1012.97
2023-03-05T06:46:24.358Z,1012.98
2023-03-05T06:47:24.931Z,1012.94
2023-03-05T06:48:24.128Z,1012.90
2023-03-05T06:49:24.186Z,1012.93
2023-03-05T06:50:24.117Z,1012.96
2023-03-05T06:51:24.117Z,1012.97
2023-03-05T06:52:24.049Z,1012.94
2023-03-05T06:53:24.101Z,1012.91
2023-03-05T06:54:24.092Z,1012.92
2023-03-05T06:55:24.041Z,1012.92
2023-03-05T06:56:24.029Z,1012.89
2023-03-05T06:57:24.032Z,1012.88
2023-03-05T06:58:23.972Z,1012.90
2023-03-05T06:59:24.119Z,1012.90
2023-03-05T07:00:23.957Z,1012.94
2023-03-05T07:01:24.126Z,1012.89
2023-03-05T07:02:24.009Z,1012.81
2023-03-05T07:03:23.953Z,1012.80
2023-03-05T07:04:23.910Z,1012.79
2023-03-05T07:05:23.960Z,1012.79
2023-03-05T07:06:23.891Z,1012.78
2023-03-05T07:07:23.899Z,1012.80
2023-03-05T07:08:23.865Z,1012.79
2023-03-05T07:09:23.890Z,1012.77
2023-03-05T07:10:23.805Z,1012.72
2023-03-05T07:11:23.997Z,1012.75
2023-03-05T07:12:23.787Z,1012.75
2023-03-05T07:13:23.822Z,1012.82
2023-03-05T07:14:23.774Z,1012.77
2023-03-05T07:15:23.765Z,1012.74
2023-03-05T07:16:23.753Z,1012.74
2023-03-05T07:17:23.892Z,1012.84
2023-03-05T07:18:23.706Z,1012.79
2023-03-05T07:19:23.987Z,1012.78
2023-03-05T07:20:23.678Z,1012.80
2023-03-05T07:21:23.726Z,1012.80
2023-03-05T07:22:23.704Z,1012.81
2023-03-05T07:23:23.815Z,1012.79
2023-03-05T07:24:23.629Z,1012.82
2023-03-05T07:25:23.657Z,1012.83
2023-03-05T07:26:23.643Z,1012.86
2023-03-05T07:27:23.630Z,1012.80
2023-03-05T07:28:23.646Z,1012.84
2023-03-05T07:29:23.671Z,1012.79
2023-03-05T07:30:23.551Z,1012.80
2023-03-05T07:31:23.658Z,1012.78
2023-03-05T07:32:23.592Z,1012.82
2023-03-05T07:33:23.543Z,1012.83
2023-03-05T07:34:25.009Z,1012.85
2023-03-05T07:35:23.568Z,1012.83
2023-03-05T07:36:23.495Z,1012.85
2023-03-05T07:37:23.548Z,1012.79
2023-03-05T07:38:23.492Z,1012.79
2023-03-05T07:39:23.484Z,1012.76
2023-03-05T07:40:23.494Z,1012.77
2023-03-05T07:41:23.622Z,1012.80
2023-03-05T07:42:23.463Z,1012.80
2023-03-05T07:43:23.453Z,1012.77
2023-03-05T07:44:23.418Z,1012.75
2023-03-05T07:45:23.413Z,1012.76
2023-03-05T07:46:23.596Z,1012.74
2023-03-05T07:47:23.416Z,1012.77
2023-03-05T07:48:23.367Z,1012.75
2023-03-05T07:49:23.361Z,1012.77
2023-03-05T07:50:23.311Z,1012.72
2023-03-05T07:51:23.339Z,1012.73
2023-03-05T07:52:23.299Z,1012.75
2023-03-05T07:53:23.364Z,1012.75
2023-03-05T07:54:23.272Z,1012.71
2023-03-05T07:55:23.303Z,1012.69
2023-03-05T07:56:23.249Z,1012.69
2023-03-05T07:57:23.269Z,1012.69
2023-03-05T07:58:23.268Z,1012.65
2023-03-05T07:59:23.258Z,1012.71
2023-03-05T08:00:23.181Z,1012.72
2023-03-05T08:01:23.205Z,1012.72
2023-03-05T08:02:23.318Z,1012.73
2023-03-05T08:03:23.185Z,1012.73
2023-03-05T08:04:23.155Z,1012.76
2023-03-05T08:05:23.217Z,1012.71
2023-03-05T08:06:23.105Z,1012.74
2023-03-05T08:07:27.408Z,1012.74
2023-03-05T08:08:23.076Z,1012.79
2023-03-05T08:09:23.115Z,1012.74
2023-03-05T08:10:23.072Z,1012.68
2023-03-05T08:11:23.122Z,1012.76
2023-03-05T08:12:23.026Z,1012.64
2023-03-05T08:13:23.035Z,1012.70
2023-03-05T08:14:23.049Z,1012.69
2023-03-05T08:15:23.004Z,1012.66
2023-03-05T08:16:23.054Z,1012.72
2023-03-05T08:17:23.039Z,1012.68
2023-03-05T08:18:22.936Z,1012.70
2023-03-05T08:19:22.985Z,1012.66
2023-03-05T08:20:22.938Z,1012.69
2023-03-05T08:21:22.956Z,1012.69
2023-03-05T08:22:22.934Z,1012.64
2023-03-05T08:23:23.028Z,1012.60
2023-03-05T08:24:22.885Z,1012.57
2023-03-05T08:25:22.917Z,1012.58
2023-03-05T08:26:22.840Z,1012.61
2023-03-05T08:27:23.191Z,1012.56
2023-03-05T08:28:22.834Z,1012.55
2023-03-05T08:29:22.883Z,1012.52
2023-03-05T08:30:22.774Z,1012.50
2023-03-05T08:31:22.844Z,1012.49
2023-03-05T08:32:22.791Z,1012.50
2023-03-05T08:33:22.837Z,1012.43
2023-03-05T08:34:22.758Z,1012.46
2023-03-05T08:35:22.934Z,1012.51
2023-03-05T08:36:22.738Z,1012.51
2023-03-05T08:37:22.741Z,1012.48
2023-03-05T08:38:22.670Z,1012.49
2023-03-05T08:39:22.727Z,1012.46
2023-03-05T08:40:22.642Z,1012.50
2023-03-05T08:41:22.744Z,1012.51
2023-03-05T08:42:22.645Z,1012.39
2023-03-05T08:43:22.658Z,1012.47
2023-03-05T08:44:22.593Z,1012.46
2023-03-05T08:45:22.594Z,1012.45
2023-03-05T08:46:22.629Z,1012.46
2023-03-05T08:47:22.604Z,1012.38
2023-03-05T08:48:22.568Z,1012.29
2023-03-05T08:49:22.570Z,1012.35
2023-03-05T08:50:22.511Z,1012.32
2023-03-05T08:51:22.551Z,1012.33
2023-03-05T08:52:22.485Z,1012.30
2023-03-05T08:53:22.638Z,1012.25
2023-03-05T08:54:22.481Z,1012.24
2023-03-05T08:55:22.465Z,1012.23
2023-03-05T08:56:22.462Z,1012.22
2023-03-05T08:57:22.486Z,1012.17
2023-03-05T08:58:22.416Z,1012.20
2023-03-05T08:59:24.215Z,1012.18
2023-03-05T09:00:22.402Z,1012.17
2023-03-05T09:01:22.432Z,1012.19
2023-03-05T09:02:22.364Z,1012.22
2023-03-05T09:03:22.374Z,1012.21
2023-03-05T09:04:22.353Z,1012.19
2023-03-05T09:05:22.400Z,1012.20
2023-03-05T09:06:22.721Z,1012.20
2023-03-05T09:07:22.372Z,1012.13
2023-03-05T09:08:22.294Z,1012.20
2023-03-05T09:09:22.325Z,1012.13
2023-03-05T09:10:22.287Z,1012.13
2023-03-05T09:11:22.446Z,1012.16
2023-03-05T09:12:22.246Z,1012.12
2023-03-05T09:13:22.285Z,1012.16
2023-03-05T09:14:22.215Z,1012.15
2023-03-05T09:15:22.230Z,1012.13
2023-03-05T09:16:22.274Z,1012.09
2023-03-05T09:17:22.267Z,1012.15
2023-03-05T09:18:22.173Z,1012.08
2023-03-05T09:19:22.197Z,1012.12
2023-03-05T09:20:22.142Z,1012.15
2023-03-05T09:21:22.153Z,1012.09
2023-03-05T09:22:22.137Z,1012.11
2023-03-05T09:23:22.212Z,1012.10
2023-03-05T09:24:22.110Z,1012.08
2023-03-05T09:25:22.129Z,1012.10
2023-03-05T09:26:22.068Z,1012.10
2023-03-05T09:27:22.099Z,1012.03
2023-03-05T09:28:22.056Z,1012.05
2023-03-05T09:29:22.082Z,1012.03
2023-03-05T09:30:22.131Z,1012.06
2023-03-05T09:31:22.117Z,1012.02
2023-03-05T09:32:21.980Z,1012.04
2023-03-05T09:33:26.065Z,1012.00
2023-03-05T09:34:21.979Z,1012.10
2023-03-05T09:35:22.090Z,1012.06
2023-03-05T09:36:21.951Z,1012.04
2023-03-05T09:37:21.963Z,1012.00
2023-03-05T09:38:21.892Z,1012.05
2023-03-05T09:39:21.944Z,1012.00
2023-03-05T09:40:21.917Z,1012.03
2023-03-05T09:41:21.928Z,1012.00
2023-03-05T09:42:21.863Z,1012.02
2023-03-05T09:43:21.866Z,1012.02
2023-03-05T09:44:21.847Z,1011.99
2023-03-05T09:45:21.868Z,1011.97
2023-03-05T09:46:21.824Z,1011.95
2023-03-05T09:47:21.848Z,1011.91
2023-03-05T09:48:21.780Z,1011.94
2023-03-05T09:49:21.796Z,1011.89
2023-03-05T09:50:21.795Z,1011.92
2023-03-05T09:51:21.776Z,1011.93
2023-03-05T09:52:21.715Z,1011.97
2023-03-05T09:53:21.742Z,1011.91
2023-03-05T09:54:21.678Z,1011.94
2023-03-05T09:55:21.681Z,1011.97
2023-03-05T09:56:21.666Z,1011.97
2023-03-05T09:57:21.683Z,1011.92
2023-03-05T09:58:21.613Z,1011.89
2023-03-05T09:59:21.679Z,1011.89
2023-03-05T10:00:21.655Z,1011.92
2023-03-05T10:01:21.606Z,1011.90
2023-03-05T10:02:21.599Z,1011.96
2023-03-05T10:03:21.656Z,1011.93
2023-03-05T10:04:21.643Z,1011.88
2023-03-05T10:05:21.556Z,1011.85
2023-03-05T10:06:21.569Z,1011.89
2023-03-05T10:07:21.496Z,1011.87
2023-03-05T10:08:21.545Z,1011.85
2023-03-05T10:09:21.500Z,1011.82
2023-03-05T10:10:21.488Z,1011.74
2023-03-05T10:11:21.613Z,1011.81
2023-03-05T10:12:21.458Z,1011.76
2023-03-05T10:13:21.423Z,1011.75
2023-03-05T10:14:21.446Z,1011.79
2023-03-05T10:15:21.404Z,1011.82
2023-03-05T10:16:21.446Z,1011.75
2023-03-05T10:17:21.504Z,1011.69
2023-03-05T10:18:21.364Z,1011.73
2023-03-05T10:19:21.330Z,1011.68
2023-03-05T10:20:21.378Z,1011.73
2023-03-05T10:21:21.326Z,1011.76
2023-03-05T10:22:21.312Z,1011.73
2023-03-05T10:23:21.436Z,1011.70
2023-03-05T10:24:21.304Z,1011.68
2023-03-05T10:25:21.262Z,1011.71
2023-03-05T10:26:21.325Z,1011.69
2023-03-05T10:27:21.268Z,1011.71
2023-03-05T10:28:21.268Z,1011.64
2023-03-05T10:29:21.347Z,1011.65
2023-03-05T10:30:21.223Z,1011.60
2023-03-05T10:31:21.232Z,1011.66
2023-03-05T10:32:21.337Z,1011.64
2023-03-05T10:33:21.170Z,1011.62
2023-03-05T10:34:21.197Z,1011.58
2023-03-05T10:35:22.166Z,1011.54
2023-03-05T10:36:21.150Z,1011.49
2023-03-05T10:37:21.088Z,1011.53
2023-03-05T10:38:25.451Z,1011.51
2023-03-05T10:39:21.061Z,1011.49
2023-03-05T10:40:21.807Z,1011.46
2023-03-05T10:41:21.198Z,1011.53
2023-03-05T10:42:21.062Z,1011.44
2023-03-05T10:43:21.082Z,1011.41
2023-03-05T10:44:21.068Z,1011.40
2023-03-05T10:45:20.998Z,1011.37
2023-03-05T10:46:21.038Z,1011.34
2023-03-05T10:47:21.011Z,1011.34
2023-03-05T10:48:21.018Z,1011.30
2023-03-05T10:49:20.976Z,1011.31
2023-03-05T10:50:21.010Z,1011.35
2023-03-05T10:51:20.933Z,1011.36
2023-03-05T10:52:20.959Z,1011.29
2023-03-05T10:53:21.022Z,1011.33
2023-03-05T10:54:20.921Z,1011.36
2023-03-05T10:55:20.874Z,1011.28
2023-03-05T10:56:20.882Z,1011.27
2023-03-05T10:57:20.848Z,1011.28
2023-03-05T10:58:22.077Z,1011.22
2023-03-05T10:59:20.924Z,1011.24
2023-03-05T11:00:20.873Z,1011.21
2023-03-05T11:01:20.874Z,1011.11
2023-03-05T11:02:20.816Z,1011.16
2023-03-05T11:03:20.790Z,1011.08
2023-03-05T11:04:20.814Z,1011.06
2023-03-05T11:05:20.773Z,1011.09
2023-03-05T11:06:20.769Z,1011.07
2023-03-05T11:07:20.737Z,1011.03
2023-03-05T11:08:20.762Z,1010.99
2023-03-05T11:09:20.714Z,1011.02
2023-03-05T11:10:20.676Z,1011.00
2023-03-05T11:11:20.792Z,1010.98
2023-03-05T11:12:20.662Z,1010.97
2023-03-05T11:13:20.645Z,1010.90
2023-03-05T11:14:20.690Z,1010.88
2023-03-05T11:15:20.625Z,1010.91
2023-03-05T11:16:21.215Z,1010.85
2023-03-05T11:17:20.642Z,1010.82
2023-03-05T11:18:20.586Z,1010.82
2023-03-05T11:19:20.613Z,1010.87
2023-03-05T11:20:20.549Z,1010.85
2023-03-05T11:21:20.523Z,1010.88
2023-03-05T11:22:20.581Z,1010.82
2023-03-05T11:23:20.564Z,1010.81
2023-03-05T11:24:20.496Z,1010.77
2023-03-05T11:25:20.463Z,1010.80
2023-03-05T11:26:20.502Z,1010.79
2023-03-05T11:27:20.477Z,1010.74
2023-03-05T11:28:32.014Z,1010.77
2023-03-05T11:29:21.484Z,1010.79
2023-03-05T11:30:20.419Z,1010.84
2023-03-05T11:31:20.448Z,1010.80
2023-03-05T11:32:20.476Z,1010.79
2023-03-05T11:33:20.363Z,1010.84
2023-03-05T11:34:20.384Z,1010.73
2023-03-05T11:35:20.386Z,1010.69
2023-03-05T11:36:20.373Z,1010.69
2023-03-05T11:37:20.335Z,1010.69
2023-03-05T11:38:20.328Z,1010.59
2023-03-05T11:39:20.271Z,1010.57
2023-03-05T11:40:20.331Z,1010.65
2023-03-05T11:41:20.314Z,1010.61
2023-03-05T11:42:20.286Z,1010.59
2023-03-05T11:43:20.248Z,1010.55
2023-03-05T11:44:20.234Z,1010.61
2023-03-05T11:45:20.194Z,1010.63
2023-03-05T11:46:20.271Z,1010.63
2023-03-05T11:47:20.297Z,1010.57
2023-03-05T11:48:20.208Z,1010.59
2023-03-05T11:49:20.170Z,1010.56
2023-03-05T11:50:20.168Z,1010.51
2023-03-05T11:51:20.142Z,1010.53
2023-03-05T11:52:20.137Z,1010.51
2023-03-05T11:53:20.223Z,1010.50
2023-03-05T11:54:20.122Z,1010.48
2023-03-05T11:55:20.096Z,1010.41
2023-03-05T11:56:20.112Z,1010.47
2023-03-05T11:57:20.044Z,1010.41
2023-03-05T11:58:20.080Z,1010.35
2023-03-05T11:59:20.060Z,1010.27
2023-03-05T12:00:20.057Z,1010.25
2023-03-05T12:01:20.019Z,1010.32
2023-03-05T12:02:20.038Z,1010.22
2023-03-05T12:03:20.048Z,1010.33
2023-03-05T12:04:19.969Z,1010.33
2023-03-05T12:05:20.077Z,1010.22